Time;durP1;ratioP1;P1;durP2;ratioP2;P2;SDS_P1;SDS_P2;PMS_P1;PMS_P2;Temp;Humidity;BMP_temperature;BMP_pressure;BME280_temperature;BME280_humidity;BME280_pressure;Samples;Min_cycle;Max_cycle;Signal;HPM_P1;HPM_P2
2023/12/21 00:00:33;;;;;;;3.08;2.88;;;;;;;;;;4983517;28;20646;-66
2023/12/21 00:03:02;;;;;;;3.72;2.92;;;;;;;;;;4986771;28;20598;-66
2023/12/21 00:05:30;;;;;;;2.83;2.63;;;;;;;;;;4987817;28;20603;-66
2023/12/21 00:07:58;;;;;;;5.40;2.92;;;;;;;;;;4988588;28;20213;-66
2023/12/21 00:10:28;;;;;;;6.70;2.90;;;;;;;;;;4978806;28;20874;-66
2023/12/21 00:12:56;;;;;;;3.50;3.13;;;;;;;;;;4968272;28;20199;-66
2023/12/21 00:15:24;;;;;;;3.63;3.30;;;;;;;;;;4983139;28;20221;-67
2023/12/21 00:17:52;;;;;;;2.53;2.30;;;;;;;;;;4988499;28;20199;-66
2023/12/21 00:20:21;;;;;;;8.13;2.55;;;;;;;;;;4988101;28;20206;-66
2023/12/21 00:22:49;;;;;;;3.60;2.90;;;;;;;;;;4969038;28;20576;-66
2023/12/21 00:25:18;;;;;;;4.95;3.00;;;;;;;;;;4984645;28;20206;-66
2023/12/21 00:27:48;;;;;;;3.85;2.88;;;;;;;;;;4987859;28;20236;-65
2023/12/21 00:30:16;;;;;;;2.78;2.45;;;;;;;;;;4988987;28;20217;-67
2023/12/21 00:32:44;;;;;;;4.35;2.75;;;;;;;;;;4987972;28;20203;-66
2023/12/21 00:35:13;;;;;;;3.03;2.80;;;;;;;;;;4972080;28;20228;-66
2023/12/21 00:37:41;;;;;;;3.45;2.53;;;;;;;;;;4987663;28;20222;-66
2023/12/21 00:40:10;;;;;;;2.95;2.65;;;;;;;;;;4971958;28;20221;-66
2023/12/21 00:42:41;;;;;;;2.40;2.20;;;;;;;;;;4987922;28;20213;-66
2023/12/21 00:45:11;;;;;;;2.83;2.63;;;;;;;;;;4989045;28;20229;-66
2023/12/21 00:47:39;;;;;;;3.67;2.33;;;;;;;;;;4988159;28;20218;-66
2023/12/21 00:50:08;;;;;;;6.65;2.55;;;;;;;;;;4988626;28;20220;-66
2023/12/21 00:52:36;;;;;;;2.97;2.20;;;;;;;;;;4980788;28;20203;-66
2023/12/21 00:55:05;;;;;;;2.45;2.25;;;;;;;;;;4971796;28;20284;-66
2023/12/21 00:57:33;;;;;;;6.40;3.15;;;;;;;;;;4987992;28;20581;-66
2023/12/21 01:00:01;;;;;;;2.58;2.38;;;;;;;;;;4970465;28;20763;-66
2023/12/21 01:02:31;;;;;;;1.95;1.85;;;;;;;;;;4978511;28;20212;-66
2023/12/21 01:05:00;;;;;;;2.95;2.40;;;;;;;;;;4990130;28;20801;-66
2023/12/21 01:07:28;;;;;;;2.20;2.10;;;;;;;;;;4973609;28;20269;-66
2023/12/21 01:09:56;;;;;;;2.10;2.00;;;;;;;;;;4973479;28;20210;-66
2023/12/21 01:12:24;;;;;;;2.40;2.17;;;;;;;;;;4979153;28;20213;-66
2023/12/21 01:14:52;;;;;;;2.40;2.30;;;;;;;;;;4990774;28;20213;-66
2023/12/21 01:17:21;;;;;;;4.25;2.40;;;;;;;;;;4991728;28;20628;-66
2023/12/21 01:19:50;;;;;;;6.88;2.60;;;;;;;;;;4988540;28;20205;-66
2023/12/21 01:22:19;;;;;;;2.55;2.35;;;;;;;;;;4988008;28;20203;-66
2023/12/21 01:24:47;;;;;;;2.00;1.90;;;;;;;;;;4990603;28;20206;-66
2023/12/21 01:27:15;;;;;;;2.42;2.28;;;;;;;;;;4955081;28;20214;-66
2023/12/21 01:29:43;;;;;;;2.88;2.10;;;;;;;;;;4976597;28;20206;-66
2023/12/21 01:32:12;;;;;;;2.05;1.90;;;;;;;;;;4978974;28;20213;-66
2023/12/21 01:34:40;;;;;;;3.72;2.10;;;;;;;;;;4974133;28;20206;-66
2023/12/21 01:37:09;;;;;;;2.40;2.03;;;;;;;;;;4991840;28;20551;-66
2023/12/21 01:39:37;;;;;;;2.20;2.00;;;;;;;;;;4991347;28;20233;-67
2023/12/21 01:42:06;;;;;;;3.40;3.20;;;;;;;;;;4989838;28;20200;-66
2023/12/21 01:44:34;;;;;;;2.60;2.20;;;;;;;;;;4988978;28;20241;-66
2023/12/21 01:47:02;;;;;;;3.35;1.88;;;;;;;;;;4990294;28;20206;-66
2023/12/21 01:49:31;;;;;;;3.83;1.85;;;;;;;;;;4985076;28;20203;-66
2023/12/21 01:52:00;;;;;;;5.72;2.38;;;;;;;;;;4991317;28;20213;-66
2023/12/21 01:54:30;;;;;;;2.72;2.08;;;;;;;;;;4990151;28;20215;-66
2023/12/21 01:56:58;;;;;;;3.30;1.63;;;;;;;;;;4990959;28;20223;-66
2023/12/21 01:59:27;;;;;;;2.75;1.52;;;;;;;;;;4990448;28;20559;-66
2023/12/21 02:01:55;;;;;;;2.33;1.60;;;;;;;;;;4990213;28;20209;-66
2023/12/21 02:04:23;;;;;;;5.32;1.70;;;;;;;;;;4987083;28;20226;-66
2023/12/21 02:06:51;;;;;;;2.47;2.10;;;;;;;;;;4971268;28;20203;-66
2023/12/21 02:09:20;;;;;;;4.40;1.92;;;;;;;;;;4972510;28;20570;-66
2023/12/21 02:11:49;;;;;;;1.75;1.65;;;;;;;;;;4971176;28;20211;-66
2023/12/21 02:14:18;;;;;;;1.63;1.52;;;;;;;;;;4971911;28;20613;-66
2023/12/21 02:16:50;;;;;;;1.65;1.55;;;;;;;;;;4989313;28;20215;-66
2023/12/21 02:19:20;;;;;;;2.65;2.03;;;;;;;;;;4985024;28;20607;-66
2023/12/21 02:21:49;;;;;;;1.75;1.50;;;;;;;;;;4982124;28;20296;-66
2023/12/21 02:24:19;;;;;;;2.65;1.80;;;;;;;;;;4990630;28;20213;-66
2023/12/21 02:26:47;;;;;;;3.22;1.80;;;;;;;;;;4989024;28;20209;-66
2023/12/21 02:29:15;;;;;;;3.35;1.80;;;;;;;;;;4989311;28;20207;-66
2023/12/21 02:31:44;;;;;;;5.47;1.90;;;;;;;;;;4990716;28;20199;-66
2023/12/21 02:34:12;;;;;;;1.55;1.35;;;;;;;;;;4990402;28;20207;-66
2023/12/21 02:36:40;;;;;;;2.03;1.80;;;;;;;;;;4987001;28;20221;-66
2023/12/21 02:39:08;;;;;;;2.55;1.70;;;;;;;;;;4974904;28;20207;-66
2023/12/21 02:41:38;;;;;;;1.42;1.33;;;;;;;;;;4971168;28;20573;-66
2023/12/21 02:44:06;;;;;;;2.10;1.90;;;;;;;;;;4972255;28;20774;-66
2023/12/21 02:46:34;;;;;;;2.00;1.90;;;;;;;;;;4984729;28;20550;-66
2023/12/21 02:49:03;;;;;;;3.80;2.28;;;;;;;;;;4973538;28;20210;-66
2023/12/21 02:51:31;;;;;;;4.88;2.25;;;;;;;;;;4989743;28;20240;-66
2023/12/21 02:53:59;;;;;;;1.83;1.73;;;;;;;;;;4972332;28;20208;-66
2023/12/21 02:56:27;;;;;;;2.10;2.00;;;;;;;;;;4989281;28;20206;-66
2023/12/21 02:59:00;;;;;;;4.18;1.92;;;;;;;;;;4986491;28;20230;-66
2023/12/21 03:01:28;;;;;;;3.53;1.75;;;;;;;;;;4988932;28;20205;-66
2023/12/21 03:03:56;;;;;;;2.42;2.20;;;;;;;;;;4971304;28;20580;-66
2023/12/21 03:06:24;;;;;;;5.53;2.25;;;;;;;;;;4988630;28;20214;-66
2023/12/21 03:08:53;;;;;;;2.10;1.90;;;;;;;;;;4989299;28;20684;-66
2023/12/21 03:11:21;;;;;;;6.13;2.30;;;;;;;;;;4989451;28;20206;-66
2023/12/21 03:13:49;;;;;;;2.67;1.85;;;;;;;;;;4980944;28;20564;-66
2023/12/21 03:16:20;;;;;;;3.85;2.05;;;;;;;;;;4956584;28;20508;-66
2023/12/21 03:18:48;;;;;;;6.60;1.88;;;;;;;;;;4989080;28;20233;-66
2023/12/21 03:21:16;;;;;;;1.88;1.73;;;;;;;;;;4989417;28;20205;-66
2023/12/21 03:23:45;;;;;;;3.17;1.67;;;;;;;;;;4971264;28;20210;-66
2023/12/21 03:26:13;;;;;;;1.40;1.30;;;;;;;;;;4988435;28;20700;-66
2023/12/21 03:28:44;;;;;;;10.35;3.15;;;;;;;;;;4983591;28;20204;-66
2023/12/21 03:31:12;;;;;;;1.52;1.42;;;;;;;;;;4969857;28;20658;-66
2023/12/21 03:33:42;;;;;;;4.20;2.10;;;;;;;;;;4970069;28;20211;-66
2023/12/21 03:36:13;;;;;;;1.77;1.67;;;;;;;;;;4970566;28;20207;-66
2023/12/21 03:38:41;;;;;;;3.88;1.80;;;;;;;;;;4970115;28;20561;-66
2023/12/21 03:41:09;;;;;;;1.90;1.80;;;;;;;;;;4970237;28;20203;-66
2023/12/21 03:43:38;;;;;;;1.92;1.73;;;;;;;;;;4969435;28;20891;-66
2023/12/21 03:46:09;;;;;;;4.47;1.40;;;;;;;;;;4978286;28;20210;-67
2023/12/21 03:48:37;;;;;;;2.20;2.00;;;;;;;;;;4978301;28;20303;-66
2023/12/21 03:51:07;;;;;;;2.08;1.85;;;;;;;;;;4989346;28;20213;-67
2023/12/21 03:53:35;;;;;;;1.50;1.40;;;;;;;;;;4975332;28;20221;-67
2023/12/21 03:56:04;;;;;;;1.80;1.70;;;;;;;;;;4977486;28;20247;-67
2023/12/21 03:58:32;;;;;;;4.40;1.20;;;;;;;;;;4988857;28;20268;-67
2023/12/21 04:01:00;;;;;;;1.60;1.50;;;;;;;;;;4970472;28;20256;-67
2023/12/21 04:03:29;;;;;;;1.50;1.40;;;;;;;;;;4987826;28;20591;-67
2023/12/21 04:05:57;;;;;;;1.42;1.33;;;;;;;;;;4989050;28;20191;-67
2023/12/21 04:08:27;;;;;;;1.83;1.20;;;;;;;;;;4988978;28;20209;-67
2023/12/21 04:10:55;;;;;;;2.47;1.40;;;;;;;;;;4988946;28;20274;-67
2023/12/21 04:13:23;;;;;;;2.65;1.25;;;;;;;;;;4980912;28;20196;-67
2023/12/21 04:15:52;;;;;;;2.50;1.50;;;;;;;;;;4969721;28;20670;-67
2023/12/21 04:18:20;;;;;;;2.42;1.55;;;;;;;;;;4975214;28;20242;-68
2023/12/21 04:20:48;;;;;;;2.88;1.40;;;;;;;;;;4975152;28;20280;-66
2023/12/21 04:23:17;;;;;;;2.65;1.40;;;;;;;;;;4969810;28;20207;-67
2023/12/21 04:25:46;;;;;;;1.65;1.30;;;;;;;;;;4988551;28;20207;-67
2023/12/21 04:28:15;;;;;;;2.53;1.10;;;;;;;;;;4973785;28;20544;-67
2023/12/21 04:30:43;;;;;;;1.00;1.00;;;;;;;;;;4989203;28;20213;-67
2023/12/21 04:33:12;;;;;;;1.10;1.00;;;;;;;;;;4986982;28;20213;-67
2023/12/21 04:35:41;;;;;;;1.17;1.05;;;;;;;;;;4989912;28;20570;-67
2023/12/21 04:38:09;;;;;;;1.10;1.10;;;;;;;;;;4990621;28;20225;-67
2023/12/21 04:40:37;;;;;;;1.35;1.10;;;;;;;;;;4991989;28;20568;-67
2023/12/21 04:43:08;;;;;;;1.88;1.10;;;;;;;;;;4991197;28;20207;-67
2023/12/21 04:45:36;;;;;;;1.05;0.98;;;;;;;;;;4992610;28;20234;-67
2023/12/21 04:48:05;;;;;;;1.08;1.08;;;;;;;;;;4987749;28;20199;-67
2023/12/21 04:50:33;;;;;;;2.35;1.50;;;;;;;;;;4989541;28;20199;-67
2023/12/21 04:53:02;;;;;;;19.85;15.00;;;;;;;;;;4988673;28;20240;-67
2023/12/21 04:55:30;;;;;;;6.38;5.03;;;;;;;;;;4992207;28;20202;-67
2023/12/21 04:57:59;;;;;;;19.98;12.20;;;;;;;;;;4991915;28;20209;-67
2023/12/21 05:00:29;;;;;;;3.25;1.30;;;;;;;;;;4983934;28;20207;-67
2023/12/21 05:02:57;;;;;;;1.25;1.13;;;;;;;;;;4987247;28;20199;-67
2023/12/21 05:05:25;;;;;;;0.70;0.70;;;;;;;;;;4989914;28;20241;-67
2023/12/21 05:07:54;;;;;;;1.30;1.20;;;;;;;;;;4991487;28;20236;-67
2023/12/21 05:10:25;;;;;;;2.28;1.20;;;;;;;;;;4992553;28;20203;-67
2023/12/21 05:12:53;;;;;;;0.82;0.82;;;;;;;;;;4991586;28;20206;-67
2023/12/21 05:15:21;;;;;;;1.55;1.45;;;;;;;;;;4992271;28;20203;-67
2023/12/21 05:17:51;;;;;;;1.00;1.00;;;;;;;;;;4991377;28;20572;-67
2023/12/21 05:20:19;;;;;;;0.85;0.85;;;;;;;;;;4992089;28;20207;-67
2023/12/21 05:22:47;;;;;;;0.90;0.90;;;;;;;;;;4991990;28;20227;-67
2023/12/21 05:25:17;;;;;;;1.73;1.63;;;;;;;;;;4991591;28;20240;-67
2023/12/21 05:27:45;;;;;;;1.10;1.00;;;;;;;;;;4991042;28;20680;-67
2023/12/21 05:30:13;;;;;;;1.80;1.70;;;;;;;;;;4991638;28;20202;-67
2023/12/21 05:32:41;;;;;;;1.00;1.00;;;;;;;;;;4991475;28;20214;-67
2023/12/21 05:35:11;;;;;;;0.90;0.90;;;;;;;;;;4991687;28;20217;-67
2023/12/21 05:37:40;;;;;;;1.00;1.00;;;;;;;;;;4991416;28;20718;-67
2023/12/21 05:40:09;;;;;;;4.07;0.80;;;;;;;;;;4991060;28;20219;-67
2023/12/21 05:42:37;;;;;;;0.60;0.60;;;;;;;;;;4991384;28;20203;-67
2023/12/21 05:45:06;;;;;;;0.60;0.60;;;;;;;;;;4986999;28;20260;-67
2023/12/21 05:47:34;;;;;;;0.70;0.70;;;;;;;;;;4967276;28;20215;-67
2023/12/21 05:50:05;;;;;;;0.60;0.60;;;;;;;;;;4972889;28;20677;-67
2023/12/21 05:52:35;;;;;;;1.92;0.80;;;;;;;;;;4974626;28;20210;-65
2023/12/21 05:55:03;;;;;;;0.60;0.60;;;;;;;;;;4989885;28;20732;-67
2023/12/21 05:57:31;;;;;;;0.65;0.65;;;;;;;;;;4991529;28;20531;-67
2023/12/21 06:00:00;;;;;;;1.35;1.17;;;;;;;;;;4991511;28;20621;-67
2023/12/21 06:02:28;;;;;;;0.70;0.70;;;;;;;;;;4973501;28;20204;-67
2023/12/21 06:04:56;;;;;;;1.05;0.95;;;;;;;;;;4970506;28;20269;-67
2023/12/21 06:07:24;;;;;;;0.68;0.68;;;;;;;;;;4983637;28;20217;-67
2023/12/21 06:09:55;;;;;;;2.17;0.70;;;;;;;;;;4988297;28;20217;-67
2023/12/21 06:12:23;;;;;;;0.90;0.80;;;;;;;;;;4989227;28;20566;-67
2023/12/21 06:14:50;;;;;;;1.25;0.63;;;;;;;;;;4990954;28;20211;-67
2023/12/21 06:17:19;;;;;;;1.05;1.00;;;;;;;;;;4990957;28;20221;-66
2023/12/21 06:19:47;;;;;;;0.80;0.80;;;;;;;;;;4980845;28;20217;-65
2023/12/21 06:22:16;;;;;;;0.90;0.90;;;;;;;;;;4988339;28;21083;-67
2023/12/21 06:24:44;;;;;;;1.60;0.93;;;;;;;;;;4989863;28;20574;-67
2023/12/21 06:27:14;;;;;;;0.82;0.82;;;;;;;;;;4990433;28;20198;-67
2023/12/21 06:29:43;;;;;;;1.20;1.20;;;;;;;;;;4991097;28;20275;-67
2023/12/21 06:32:12;;;;;;;2.45;0.70;;;;;;;;;;4991088;28;20202;-67
2023/12/21 06:34:40;;;;;;;0.77;0.77;;;;;;;;;;4990986;28;20203;-67
2023/12/21 06:37:08;;;;;;;1.17;1.08;;;;;;;;;;4988633;28;20198;-66
2023/12/21 06:39:36;;;;;;;0.55;0.55;;;;;;;;;;4987644;28;20252;-67
2023/12/21 06:42:05;;;;;;;0.90;0.85;;;;;;;;;;4990651;28;20207;-67
2023/12/21 06:44:35;;;;;;;0.70;0.70;;;;;;;;;;4991397;28;20223;-66
2023/12/21 06:47:03;;;;;;;0.60;0.60;;;;;;;;;;4991545;28;20198;-66
2023/12/21 06:49:31;;;;;;;3.15;0.73;;;;;;;;;;4991429;28;20206;-67
2023/12/21 06:52:00;;;;;;;0.70;0.70;;;;;;;;;;4976708;28;20654;-66
2023/12/21 06:54:28;;;;;;;0.60;0.57;;;;;;;;;;4972072;28;20630;-66
2023/12/21 06:56:56;;;;;;;0.50;0.50;;;;;;;;;;4972831;28;20209;-67
2023/12/21 06:59:24;;;;;;;0.70;0.70;;;;;;;;;;4990581;28;20226;-67
2023/12/21 07:01:54;;;;;;;0.60;0.60;;;;;;;;;;4971792;28;20202;-67
2023/12/21 07:04:22;;;;;;;0.50;0.50;;;;;;;;;;4986758;28;20877;-68
2023/12/21 07:06:51;;;;;;;0.75;0.70;;;;;;;;;;4980614;28;20210;-68
2023/12/21 07:09:19;;;;;;;0.63;0.63;;;;;;;;;;4989081;28;20213;-66
2023/12/21 07:11:47;;;;;;;1.58;0.80;;;;;;;;;;4997642;28;20211;-66
2023/12/21 07:14:16;;;;;;;0.70;0.50;;;;;;;;;;4988985;28;20199;-66
2023/12/21 07:16:44;;;;;;;0.50;0.50;;;;;;;;;;4969813;28;20198;-66
2023/12/21 07:19:13;;;;;;;0.50;0.50;;;;;;;;;;4983714;28;20227;-67
2023/12/21 07:21:42;;;;;;;0.60;0.60;;;;;;;;;;4979298;28;20633;-67
2023/12/21 07:24:10;;;;;;;1.08;0.60;;;;;;;;;;4989875;28;20574;-67
2023/12/21 07:26:38;;;;;;;0.80;0.60;;;;;;;;;;4992327;28;20201;-65
2023/12/21 07:29:07;;;;;;;0.65;0.60;;;;;;;;;;4987047;28;20210;-66
2023/12/21 07:31:35;;;;;;;1.48;0.60;;;;;;;;;;4984978;28;20211;-66
2023/12/21 07:34:03;;;;;;;0.60;0.60;;;;;;;;;;4985735;28;20586;-67
2023/12/21 07:36:33;;;;;;;0.60;0.60;;;;;;;;;;4971549;28;20203;-67
2023/12/21 07:39:01;;;;;;;2.58;0.60;;;;;;;;;;4988177;28;20202;-67
2023/12/21 07:41:29;;;;;;;0.80;0.80;;;;;;;;;;4988773;28;20566;-66
2023/12/21 07:43:58;;;;;;;0.70;0.70;;;;;;;;;;4968294;28;20216;-67
2023/12/21 07:46:26;;;;;;;0.60;0.60;;;;;;;;;;4981376;28;20561;-67
2023/12/21 07:48:54;;;;;;;0.80;0.70;;;;;;;;;;4986587;28;20195;-66
2023/12/21 07:51:23;;;;;;;0.60;0.60;;;;;;;;;;4969287;28;20195;-66
2023/12/21 07:53:52;;;;;;;0.70;0.70;;;;;;;;;;4974002;28;20211;-66
2023/12/21 07:56:21;;;;;;;0.80;0.80;;;;;;;;;;4987356;28;20205;-67
2023/12/21 07:58:49;;;;;;;0.90;0.90;;;;;;;;;;4988435;28;20673;-66
2023/12/21 08:01:17;;;;;;;0.68;0.68;;;;;;;;;;4985492;28;20214;-67
2023/12/21 08:03:45;;;;;;;0.90;0.90;;;;;;;;;;5011944;28;20256;-67
2023/12/21 08:06:21;;;;;;;0.90;0.90;;;;;;;;;;5049555;28;20197;-67
2023/12/21 08:08:52;;;;;;;0.90;0.90;;;;;;;;;;5037763;28;20193;-67
2023/12/21 08:11:22;;;;;;;0.70;0.70;;;;;;;;;;5051901;28;20191;-67
2023/12/21 08:13:51;;;;;;;0.70;0.70;;;;;;;;;;5051819;28;20193;-66
2023/12/21 08:16:19;;;;;;;0.90;0.90;;;;;;;;;;5053134;28;20200;-66
2023/12/21 08:18:47;;;;;;;1.20;1.20;;;;;;;;;;5049627;28;20204;-66
2023/12/21 08:21:16;;;;;;;0.90;0.90;;;;;;;;;;5055306;28;20594;-65
2023/12/21 08:23:44;;;;;;;1.25;1.15;;;;;;;;;;5057554;28;20544;-67
2023/12/21 08:26:12;;;;;;;1.70;1.60;;;;;;;;;;5054056;28;20234;-67
2023/12/21 08:28:42;;;;;;;2.60;2.45;;;;;;;;;;5055416;28;20193;-67
2023/12/21 08:31:11;;;;;;;0.80;0.80;;;;;;;;;;5055613;28;20253;-70
2023/12/21 08:33:39;;;;;;;0.85;0.85;;;;;;;;;;5052312;28;20200;-66
2023/12/21 08:36:08;;;;;;;1.13;1.13;;;;;;;;;;5043150;28;20196;-66
2023/12/21 08:38:36;;;;;;;0.90;0.90;;;;;;;;;;5046830;28;20203;-66
2023/12/21 08:41:04;;;;;;;1.25;1.25;;;;;;;;;;5045439;28;20235;-66
2023/12/21 08:43:32;;;;;;;3.10;2.65;;;;;;;;;;5059664;28;20226;-66
2023/12/21 08:46:03;;;;;;;6.20;5.63;;;;;;;;;;5045437;28;20205;-67
2023/12/21 08:48:32;;;;;;;2.15;1.23;;;;;;;;;;5054675;28;20203;-66
2023/12/21 08:51:00;;;;;;;1.25;0.88;;;;;;;;;;5044483;28;20208;-66
2023/12/21 08:53:28;;;;;;;2.40;2.30;;;;;;;;;;5049548;28;20273;-65
2023/12/21 08:55:56;;;;;;;1.10;1.00;;;;;;;;;;5051947;28;20219;-65
2023/12/21 08:58:24;;;;;;;3.53;3.10;;;;;;;;;;5047675;28;20678;-66
2023/12/21 09:00:53;;;;;;;2.15;2.05;;;;;;;;;;5041653;28;20242;-68
2023/12/21 09:03:24;;;;;;;0.70;0.70;;;;;;;;;;5036966;28;20201;-67
2023/12/21 09:05:52;;;;;;;0.82;0.82;;;;;;;;;;4994891;28;20712;-66
2023/12/21 09:08:21;;;;;;;2.15;2.00;;;;;;;;;;4979502;28;20637;-66
2023/12/21 09:10:49;;;;;;;1.00;1.00;;;;;;;;;;4993574;28;20198;-68
2023/12/21 09:13:17;;;;;;;2.05;1.45;;;;;;;;;;4995423;28;20252;-68
2023/12/21 09:15:45;;;;;;;1.30;0.95;;;;;;;;;;4993452;28;20199;-68
2023/12/21 09:18:14;;;;;;;3.00;2.80;;;;;;;;;;4993678;28;20203;-69
2023/12/21 09:20:43;;;;;;;1.85;1.75;;;;;;;;;;4989513;28;20219;-69
2023/12/21 09:23:12;;;;;;;0.93;0.90;;;;;;;;;;4991153;28;20207;-69
2023/12/21 09:25:41;;;;;;;3.38;3.17;;;;;;;;;;4990951;28;20255;-70
2023/12/21 09:28:09;;;;;;;8.88;8.10;;;;;;;;;;4976146;28;20251;-66
2023/12/21 09:30:37;;;;;;;13.95;12.57;;;;;;;;;;4991099;28;20199;-66
2023/12/21 09:33:05;;;;;;;1.15;1.05;;;;;;;;;;4988488;28;20236;-66
2023/12/21 09:35:34;;;;;;;0.93;0.82;;;;;;;;;;4971654;28;20567;-66
2023/12/21 09:38:03;;;;;;;9.23;8.52;;;;;;;;;;4973450;28;20229;-67
2023/12/21 09:40:34;;;;;;;2.88;2.67;;;;;;;;;;4978595;28;20221;-68
2023/12/21 09:43:05;;;;;;;5.88;5.38;;;;;;;;;;4990451;28;20205;-69
2023/12/21 09:45:34;;;;;;;1.00;0.90;;;;;;;;;;4990751;28;20291;-69
2023/12/21 09:48:03;;;;;;;1.20;1.10;;;;;;;;;;4990101;28;20255;-67
2023/12/21 09:50:31;;;;;;;6.05;5.63;;;;;;;;;;4981442;28;20207;-67
2023/12/21 09:53:00;;;;;;;1.02;1.00;;;;;;;;;;4988631;28;20199;-68
2023/12/21 09:55:32;;;;;;;2.72;2.53;;;;;;;;;;4984514;28;20207;-66
2023/12/21 09:58:01;;;;;;;2.78;2.58;;;;;;;;;;4975149;28;20198;-68
2023/12/21 10:00:31;;;;;;;1.00;0.98;;;;;;;;;;4979880;28;20207;-67
2023/12/21 10:02:59;;;;;;;0.77;0.77;;;;;;;;;;4979143;28;20200;-68
2023/12/21 10:05:27;;;;;;;4.07;3.75;;;;;;;;;;4988294;28;20260;-66
2023/12/21 10:07:56;;;;;;;1.15;1.05;;;;;;;;;;4989712;28;20203;-66
2023/12/21 10:10:24;;;;;;;1.02;1.00;;;;;;;;;;4990565;28;20213;-66
2023/12/21 10:12:53;;;;;;;3.38;3.17;;;;;;;;;;5000693;28;20210;-65
2023/12/21 10:15:23;;;;;;;1.55;0.75;;;;;;;;;;5010441;28;20259;-65
2023/12/21 10:17:52;;;;;;;1.10;0.85;;;;;;;;;;4983183;28;20567;-67
2023/12/21 10:20:23;;;;;;;1.60;0.70;;;;;;;;;;4989454;28;20205;-67
2023/12/21 10:22:51;;;;;;;1.08;0.98;;;;;;;;;;4990126;28;20209;-69
2023/12/21 10:25:21;;;;;;;0.90;0.70;;;;;;;;;;4990500;28;20217;-68
2023/12/21 10:27:57;;;;;;;0.90;0.90;;;;;;;;;;4970992;28;20211;-64
2023/12/21 10:30:26;;;;;;;1.35;0.70;;;;;;;;;;4988735;28;20210;-66
2023/12/21 10:32:55;;;;;;;1.23;0.80;;;;;;;;;;4989689;28;20217;-67
2023/12/21 10:35:23;;;;;;;1.33;0.80;;;;;;;;;;4989408;28;20684;-67
2023/12/21 10:37:52;;;;;;;0.80;0.70;;;;;;;;;;4989518;28;20207;-68
2023/12/21 10:40:21;;;;;;;0.98;0.80;;;;;;;;;;4973078;28;20211;-68
2023/12/21 10:42:49;;;;;;;0.68;0.68;;;;;;;;;;4989680;28;20210;-67
2023/12/21 10:45:19;;;;;;;5.70;0.73;;;;;;;;;;4982539;28;20448;-67
2023/12/21 10:47:49;;;;;;;0.60;0.50;;;;;;;;;;4996065;28;20277;-66
2023/12/21 10:50:17;;;;;;;0.70;0.70;;;;;;;;;;5004405;28;20237;-65
2023/12/21 10:52:46;;;;;;;0.50;0.45;;;;;;;;;;5003738;28;20223;-65
2023/12/21 10:55:16;;;;;;;0.80;0.50;;;;;;;;;;5001860;28;20226;-66
2023/12/21 10:57:44;;;;;;;0.50;0.50;;;;;;;;;;5007718;28;20233;-66
2023/12/21 11:00:15;;;;;;;0.60;0.60;;;;;;;;;;5006370;28;20785;-66
2023/12/21 11:02:46;;;;;;;0.60;0.55;;;;;;;;;;5008440;28;20554;-66
2023/12/21 11:05:19;;;;;;;0.98;0.98;;;;;;;;;;5007637;28;20245;-66
2023/12/21 11:07:49;;;;;;;0.80;0.80;;;;;;;;;;5009015;28;20215;-67
2023/12/21 11:10:18;;;;;;;0.70;0.60;;;;;;;;;;5007695;28;20299;-66
2023/12/21 11:12:46;;;;;;;0.70;0.70;;;;;;;;;;5009070;28;20238;-66
2023/12/21 11:15:16;;;;;;;0.60;0.60;;;;;;;;;;5005143;28;20284;-66
2023/12/21 11:17:51;;;;;;;0.50;0.50;;;;;;;;;;5004134;28;20237;-66
2023/12/21 11:20:22;;;;;;;0.50;0.50;;;;;;;;;;5001186;28;20246;-65
2023/12/21 11:22:51;;;;;;;0.55;0.55;;;;;;;;;;4999733;28;20289;-66
2023/12/21 11:25:22;;;;;;;0.70;0.55;;;;;;;;;;5001034;28;20318;-65
2023/12/21 11:27:51;;;;;;;0.60;0.60;;;;;;;;;;4994661;28;20263;-66
2023/12/21 11:30:22;;;;;;;0.70;0.70;;;;;;;;;;5001078;28;20278;-65
2023/12/21 11:32:51;;;;;;;1.02;0.50;;;;;;;;;;5002339;28;20202;-65
2023/12/21 11:35:20;;;;;;;0.68;0.68;;;;;;;;;;5001029;28;20333;-65
2023/12/21 11:37:51;;;;;;;0.60;0.60;;;;;;;;;;5001678;28;20294;-65
2023/12/21 11:40:21;;;;;;;0.60;0.60;;;;;;;;;;4985219;28;20693;-66
2023/12/21 11:42:50;;;;;;;0.65;0.65;;;;;;;;;;5002194;28;20230;-66
2023/12/21 11:45:23;;;;;;;0.60;0.50;;;;;;;;;;4998533;28;20275;-66
2023/12/21 11:47:54;;;;;;;1.67;0.70;;;;;;;;;;5004252;28;20624;-67
2023/12/21 11:50:26;;;;;;;0.60;0.60;;;;;;;;;;5005462;28;20229;-66
2023/12/21 11:53:06;;;;;;;2.35;0.68;;;;;;;;;;5007679;28;20222;-66
2023/12/21 11:55:37;;;;;;;0.60;0.60;;;;;;;;;;4988870;28;20215;-66
2023/12/21 11:58:09;;;;;;;1.05;0.82;;;;;;;;;;4989451;28;20254;-66
2023/12/21 12:00:44;;;;;;;0.60;0.60;;;;;;;;;;4993220;28;20214;-66
2023/12/21 12:03:14;;;;;;;1.40;0.65;;;;;;;;;;5002765;28;20238;-67
2023/12/21 12:05:42;;;;;;;0.60;0.50;;;;;;;;;;5000359;28;20226;-67
2023/12/21 12:08:11;;;;;;;1.08;0.60;;;;;;;;;;5003666;28;20256;-67
2023/12/21 12:10:39;;;;;;;0.60;0.60;;;;;;;;;;5005126;28;20224;-66
2023/12/21 12:13:09;;;;;;;0.60;0.60;;;;;;;;;;5004063;28;20230;-66
2023/12/21 12:15:37;;;;;;;0.50;0.50;;;;;;;;;;5006436;28;20226;-66
2023/12/21 12:18:08;;;;;;;0.60;0.60;;;;;;;;;;5010937;28;20226;-67
2023/12/21 12:20:42;;;;;;;0.57;0.57;;;;;;;;;;5006007;28;20202;-66
2023/12/21 12:23:11;;;;;;;0.75;0.70;;;;;;;;;;5005760;28;20230;-66
2023/12/21 12:25:42;;;;;;;0.93;0.60;;;;;;;;;;5004192;28;20214;-67
2023/12/21 12:28:10;;;;;;;0.60;0.60;;;;;;;;;;5000938;28;20255;-66
2023/12/21 12:30:39;;;;;;;0.60;0.60;;;;;;;;;;4982750;28;20258;-66
2023/12/21 12:33:08;;;;;;;0.60;0.60;;;;;;;;;;4982579;28;20251;-65
2023/12/21 12:35:40;;;;;;;1.90;0.85;;;;;;;;;;5002116;28;20254;-68
2023/12/21 12:38:08;;;;;;;0.60;0.60;;;;;;;;;;4993390;28;20243;-65
2023/12/21 12:40:37;;;;;;;0.50;0.50;;;;;;;;;;5003029;28;20226;-66
2023/12/21 12:43:05;;;;;;;0.70;0.60;;;;;;;;;;5003310;28;20282;-67
2023/12/21 12:45:34;;;;;;;0.50;0.50;;;;;;;;;;5003311;28;20261;-66
2023/12/21 12:48:03;;;;;;;0.90;0.60;;;;;;;;;;4993883;28;20274;-66
2023/12/21 12:50:32;;;;;;;0.65;0.50;;;;;;;;;;5003375;28;20303;-67
2023/12/21 12:53:03;;;;;;;0.50;0.50;;;;;;;;;;5004266;28;20230;-67
2023/12/21 12:55:32;;;;;;;0.70;0.70;;;;;;;;;;5006168;28;20222;-65
2023/12/21 12:58:01;;;;;;;0.60;0.55;;;;;;;;;;4999220;28;20246;-65
2023/12/21 13:00:29;;;;;;;1.05;0.60;;;;;;;;;;4990237;28;20241;-65
2023/12/21 13:02:58;;;;;;;0.80;0.80;;;;;;;;;;5007940;28;20221;-66
2023/12/21 13:05:26;;;;;;;0.70;0.50;;;;;;;;;;5008200;28;20254;-65
2023/12/21 13:07:55;;;;;;;0.60;0.60;;;;;;;;;;5005237;28;20241;-65
2023/12/21 13:10:26;;;;;;;0.60;0.60;;;;;;;;;;5010111;28;20245;-65
2023/12/21 13:12:54;;;;;;;0.70;0.63;;;;;;;;;;5010146;28;20219;-66
2023/12/21 13:15:22;;;;;;;1.45;0.73;;;;;;;;;;5009954;28;20230;-66
2023/12/21 13:17:52;;;;;;;0.60;0.60;;;;;;;;;;5008463;28;20218;-65
2023/12/21 13:20:20;;;;;;;1.30;0.77;;;;;;;;;;5004725;28;20206;-65
2023/12/21 13:22:49;;;;;;;1.55;0.60;;;;;;;;;;5003108;28;20350;-65
2023/12/21 13:25:17;;;;;;;0.60;0.60;;;;;;;;;;5001343;28;20497;-65
2023/12/21 13:27:46;;;;;;;0.50;0.50;;;;;;;;;;4986748;28;20623;-65
2023/12/21 13:30:16;;;;;;;0.50;0.50;;;;;;;;;;5005571;28;20231;-65
2023/12/21 13:32:45;;;;;;;0.50;0.50;;;;;;;;;;5004476;28;20258;-65
2023/12/21 13:35:18;;;;;;;0.57;0.57;;;;;;;;;;5001720;28;20187;-65
2023/12/21 13:37:46;;;;;;;0.90;0.57;;;;;;;;;;5001632;28;20258;-66
2023/12/21 13:40:15;;;;;;;0.60;0.60;;;;;;;;;;5001727;28;20305;-67
2023/12/21 13:42:43;;;;;;;0.60;0.50;;;;;;;;;;5003484;28;20732;-66
2023/12/21 13:45:13;;;;;;;0.70;0.60;;;;;;;;;;5003412;28;20283;-66
2023/12/21 13:47:41;;;;;;;0.65;0.65;;;;;;;;;;4999163;28;20286;-66
2023/12/21 13:50:09;;;;;;;0.50;0.50;;;;;;;;;;4989756;28;20254;-65
2023/12/21 13:52:38;;;;;;;0.77;0.77;;;;;;;;;;5004547;28;20233;-65
2023/12/21 13:55:06;;;;;;;0.60;0.60;;;;;;;;;;5001869;28;20277;-65
2023/12/21 13:57:35;;;;;;;0.68;0.68;;;;;;;;;;5004963;28;20307;-66
2023/12/21 14:00:04;;;;;;;0.85;0.50;;;;;;;;;;5003037;28;20211;-65
2023/12/21 14:02:41;;;;;;;0.60;0.60;;;;;;;;;;5001668;28;20271;-65
2023/12/21 14:05:10;;;;;;;0.80;0.57;;;;;;;;;;4990548;28;20283;-66
2023/12/21 14:07:38;;;;;;;0.70;0.70;;;;;;;;;;4987855;28;20250;-65
2023/12/21 14:10:07;;;;;;;0.70;0.60;;;;;;;;;;5006811;28;20227;-65
2023/12/21 14:12:35;;;;;;;0.50;0.50;;;;;;;;;;5003079;28;20262;-65
2023/12/21 14:15:04;;;;;;;0.70;0.70;;;;;;;;;;5008122;28;20232;-66
2023/12/21 14:17:32;;;;;;;0.50;0.50;;;;;;;;;;5005790;28;20261;-66
2023/12/21 14:20:02;;;;;;;0.73;0.73;;;;;;;;;;5008219;28;20264;-65
2023/12/21 14:22:30;;;;;;;0.80;0.60;;;;;;;;;;5009361;28;20250;-66
2023/12/21 14:24:58;;;;;;;0.60;0.50;;;;;;;;;;5009895;28;20265;-65
2023/12/21 14:27:27;;;;;;;0.60;0.60;;;;;;;;;;5007483;28;20235;-65
2023/12/21 14:29:55;;;;;;;0.70;0.70;;;;;;;;;;5007642;28;20226;-66
2023/12/21 14:32:23;;;;;;;0.50;0.50;;;;;;;;;;5007967;28;20291;-65
2023/12/21 14:34:51;;;;;;;0.50;0.50;;;;;;;;;;5007065;28;20226;-65
2023/12/21 14:37:21;;;;;;;0.73;0.60;;;;;;;;;;5006122;28;20234;-65
2023/12/21 14:39:50;;;;;;;0.60;0.60;;;;;;;;;;4992511;28;20206;-65
2023/12/21 14:42:18;;;;;;;0.60;0.57;;;;;;;;;;4993428;28;20289;-65
2023/12/21 14:44:46;;;;;;;0.60;0.60;;;;;;;;;;4998783;28;20480;-65
2023/12/21 14:47:15;;;;;;;1.50;0.70;;;;;;;;;;5003349;28;20278;-65
2023/12/21 14:49:46;;;;;;;0.55;0.55;;;;;;;;;;5000154;28;20285;-65
2023/12/21 14:52:14;;;;;;;0.60;0.60;;;;;;;;;;4984616;28;20266;-65